ACA247 KBOS-CYHZ
Flight info
| Callsign | ACA247 |
|---|---|
| Flight time | 1h 0m |
| Altitude | 39000 |
| Route | LBSTA8 LBSTA DCT ALLEX FUNDY5 |
| Aircraft | B77W/H-SDE1E2E3FGHIJ2J3J4J5M1RWXY/LB1D1 |
Departure
| Time | 2026-05-05 00:56 |
|---|---|
| Airport | Boston Logan International Airport (KBOS) |
Arrival
| Time | 2026-05-05 01:56 |
|---|---|
| Airport | Halifax / Stanfield International Airport (CYHZ) |
| Time | Latitude | Longitude | Altitude | Speed | Heading |
|---|---|---|---|---|---|
| 2026-05-05 00:13 | 42.36536 | -71.01399 | 29 ft | 0 kts | 328° |
| 2026-05-05 00:41 | 42.36522 | -71.01390 | 28 ft | 3 kts | 355° |
| 2026-05-05 00:41 | 42.36506 | -71.01392 | 28 ft | 1 kts | 21° |
| 2026-05-05 00:48 | 42.36518 | -71.01381 | 28 ft | 4 kts | 40° |
| 2026-05-05 00:48 | 42.36545 | -71.01336 | 29 ft | 8 kts | 47° |
| 2026-05-05 00:48 | 42.36592 | -71.01293 | 30 ft | 8 kts | 26° |
| 2026-05-05 00:48 | 42.36644 | -71.01267 | 31 ft | 8 kts | 18° |
| 2026-05-05 00:49 | 42.36699 | -71.01247 | 32 ft | 8 kts | 15° |
| 2026-05-05 00:49 | 42.36758 | -71.01243 | 31 ft | 10 kts | 356° |
| 2026-05-05 00:49 | 42.36824 | -71.01271 | 29 ft | 11 kts | 348° |
| 2026-05-05 00:49 | 42.36882 | -71.01231 | 29 ft | 9 kts | 45° |
| 2026-05-05 00:50 | 42.36929 | -71.01171 | 29 ft | 9 kts | 42° |
| 2026-05-05 00:50 | 42.36982 | -71.01117 | 29 ft | 10 kts | 30° |
| 2026-05-05 00:50 | 42.37051 | -71.01066 | 27 ft | 13 kts | 27° |
| 2026-05-05 00:50 | 42.37136 | -71.01011 | 27 ft | 14 kts | 26° |
| 2026-05-05 00:51 | 42.37224 | -71.00954 | 27 ft | 14 kts | 25° |
| 2026-05-05 00:51 | 42.37252 | -71.00936 | 27 ft | 0 kts | 25° |
| 2026-05-05 00:51 | 42.37264 | -71.00928 | 27 ft | 5 kts | 25° |
| 2026-05-05 00:52 | 42.37310 | -71.00902 | 27 ft | 10 kts | 23° |
| 2026-05-05 00:52 | 42.37386 | -71.00862 | 27 ft | 13 kts | 20° |
| 2026-05-05 00:52 | 42.37477 | -71.00819 | 28 ft | 5 kts | 19° |
| 2026-05-05 00:52 | 42.37479 | -71.00818 | 28 ft | 1 kts | 19° |
| 2026-05-05 00:53 | 42.37509 | -71.00803 | 29 ft | 7 kts | 19° |
| 2026-05-05 00:53 | 42.37573 | -71.00773 | 29 ft | 12 kts | 19° |
| 2026-05-05 00:53 | 42.37617 | -71.00742 | 30 ft | 6 kts | 52° |
| 2026-05-05 00:53 | 42.37618 | -71.00739 | 30 ft | 0 kts | 58° |
| 2026-05-05 00:54 | 42.37619 | -71.00737 | 30 ft | 1 kts | 52° |
| 2026-05-05 00:54 | 42.37625 | -71.00734 | 30 ft | 1 kts | 26° |
| 2026-05-05 00:54 | 42.37665 | -71.00720 | 32 ft | 14 kts | 14° |
| 2026-05-05 00:54 | 42.37768 | -71.00680 | 34 ft | 16 kts | 18° |
| 2026-05-05 00:55 | 42.37831 | -71.00573 | 33 ft | 13 kts | 97° |
| 2026-05-05 00:55 | 42.37804 | -71.00493 | 31 ft | 11 kts | 145° |
| 2026-05-05 00:55 | 42.37692 | -71.00522 | 32 ft | 27 kts | 199° |
| 2026-05-05 00:55 | 42.37299 | -71.00708 | 30 ft | 114 kts | 199° |
| 2026-05-05 00:56 | 42.36220 | -71.01223 | 463 ft | 190 kts | 199° |
| 2026-05-05 00:56 | 42.35016 | -71.01723 | 2368 ft | 187 kts | 195° |
| 2026-05-05 00:56 | 42.33620 | -71.01497 | 3419 ft | 216 kts | 161° |
| 2026-05-05 00:56 | 42.32484 | -71.00046 | 4226 ft | 239 kts | 124° |
| 2026-05-05 00:57 | 42.31809 | -70.97977 | 4886 ft | 249 kts | 113° |
| 2026-05-05 00:57 | 42.31344 | -70.95679 | 5063 ft | 260 kts | 101° |
| 2026-05-05 00:57 | 42.31384 | -70.93139 | 5498 ft | 281 kts | 79° |
| 2026-05-05 00:57 | 42.31815 | -70.90507 | 6409 ft | 292 kts | 75° |
| 2026-05-05 00:58 | 42.32294 | -70.87806 | 7380 ft | 299 kts | 76° |
| 2026-05-05 00:58 | 42.32751 | -70.85027 | 8588 ft | 299 kts | 76° |
| 2026-05-05 00:58 | 42.33174 | -70.82296 | 9710 ft | 303 kts | 76° |
| 2026-05-05 00:58 | 42.33602 | -70.79474 | 10657 ft | 309 kts | 76° |
| 2026-05-05 00:59 | 42.34358 | -70.76761 | 11425 ft | 314 kts | 53° |
| 2026-05-05 00:59 | 42.35957 | -70.74736 | 12113 ft | 324 kts | 26° |
| 2026-05-05 00:59 | 42.38152 | -70.73594 | 12377 ft | 348 kts | 12° |
| 2026-05-05 00:59 | 42.40546 | -70.72674 | 12703 ft | 376 kts | 12° |
| 2026-05-05 01:00 | 42.43106 | -70.71641 | 13457 ft | 391 kts | 13° |
| 2026-05-05 01:00 | 42.45733 | -70.70584 | 13989 ft | 395 kts | 11° |
| 2026-05-05 01:00 | 42.48412 | -70.69710 | 13981 ft | 396 kts | 8° |
| 2026-05-05 01:00 | 42.51105 | -70.68944 | 13982 ft | 395 kts | 7° |
| 2026-05-05 01:01 | 42.53791 | -70.68193 | 13981 ft | 394 kts | 8° |
| 2026-05-05 01:01 | 42.56480 | -70.67422 | 14196 ft | 397 kts | 8° |
| 2026-05-05 01:01 | 42.59199 | -70.66622 | 15211 ft | 401 kts | 8° |
| 2026-05-05 01:01 | 42.61928 | -70.65805 | 16359 ft | 402 kts | 8° |
| 2026-05-05 01:02 | 42.64675 | -70.64977 | 17401 ft | 407 kts | 8° |
| 2026-05-05 01:02 | 42.66519 | -70.64422 | 18031 ft | 412 kts | 8° |
| 2026-05-05 01:02 | 42.69341 | -70.63626 | 18880 ft | 416 kts | 5° |
| 2026-05-05 01:02 | 42.72207 | -70.63015 | 19793 ft | 418 kts | 4° |
| 2026-05-05 01:03 | 42.75088 | -70.62439 | 20728 ft | 421 kts | 4° |
| 2026-05-05 01:03 | 42.77957 | -70.61628 | 21471 ft | 429 kts | 15° |
| 2026-05-05 01:03 | 42.80583 | -70.59539 | 22158 ft | 448 kts | 37° |
| 2026-05-05 01:03 | 42.82631 | -70.56281 | 22988 ft | 456 kts | 53° |
| 2026-05-05 01:04 | 42.84343 | -70.52602 | 23639 ft | 463 kts | 54° |
| 2026-05-05 01:04 | 42.87802 | -70.45109 | 25064 ft | 469 kts | 54° |
| 2026-05-05 01:04 | 42.89548 | -70.41345 | 25806 ft | 471 kts | 53° |
| 2026-05-05 01:05 | 42.91312 | -70.37563 | 26492 ft | 474 kts | 53° |
| 2026-05-05 01:05 | 42.93097 | -70.33753 | 27082 ft | 479 kts | 53° |
| 2026-05-05 01:05 | 42.94901 | -70.29913 | 27692 ft | 482 kts | 52° |
| 2026-05-05 01:05 | 42.96719 | -70.26047 | 28325 ft | 485 kts | 52° |
| 2026-05-05 01:06 | 42.98546 | -70.22158 | 28924 ft | 488 kts | 52° |
| 2026-05-05 01:06 | 43.00382 | -70.18245 | 29527 ft | 491 kts | 52° |
| 2026-05-05 01:06 | 43.02228 | -70.14307 | 30002 ft | 494 kts | 52° |
| 2026-05-05 01:06 | 43.04081 | -70.10347 | 30480 ft | 494 kts | 52° |
| 2026-05-05 01:07 | 43.05923 | -70.06399 | 31158 ft | 490 kts | 51° |
| 2026-05-05 01:07 | 43.07743 | -70.02488 | 31897 ft | 484 kts | 51° |
| 2026-05-05 01:07 | 43.09540 | -69.98622 | 32631 ft | 479 kts | 51° |
| 2026-05-05 01:07 | 43.11321 | -69.94788 | 33297 ft | 476 kts | 51° |
| 2026-05-05 01:08 | 43.13092 | -69.90977 | 33886 ft | 473 kts | 50° |
| 2026-05-05 01:08 | 43.14858 | -69.87175 | 34265 ft | 474 kts | 51° |
| 2026-05-05 01:08 | 43.16634 | -69.83352 | 34557 ft | 477 kts | 51° |
| 2026-05-05 01:08 | 43.18419 | -69.79505 | 34832 ft | 480 kts | 51° |
| 2026-05-05 01:09 | 43.20215 | -69.75628 | 35065 ft | 483 kts | 51° |
| 2026-05-05 01:09 | 43.22019 | -69.71726 | 35363 ft | 486 kts | 52° |
| 2026-05-05 01:09 | 43.23827 | -69.67804 | 35640 ft | 488 kts | 52° |
| 2026-05-05 01:09 | 43.25642 | -69.63862 | 35903 ft | 490 kts | 52° |
| 2026-05-05 01:10 | 43.27463 | -69.59899 | 36173 ft | 492 kts | 52° |
| 2026-05-05 01:10 | 43.29292 | -69.55915 | 36439 ft | 494 kts | 52° |
| 2026-05-05 01:10 | 43.31127 | -69.51913 | 36701 ft | 496 kts | 53° |
| 2026-05-05 01:10 | 43.32968 | -69.47892 | 36979 ft | 498 kts | 53° |
| 2026-05-05 01:11 | 43.34790 | -69.43906 | 37224 ft | 500 kts | 53° |
| 2026-05-05 01:11 | 43.36643 | -69.39849 | 37478 ft | 502 kts | 53° |
| 2026-05-05 01:11 | 43.38501 | -69.35775 | 37736 ft | 504 kts | 54° |
| 2026-05-05 01:11 | 43.40364 | -69.31684 | 37979 ft | 506 kts | 54° |
| 2026-05-05 01:12 | 43.42236 | -69.27569 | 38153 ft | 509 kts | 54° |
| 2026-05-05 01:12 | 43.44114 | -69.23433 | 38395 ft | 510 kts | 54° |
| 2026-05-05 01:12 | 43.45995 | -69.19285 | 38652 ft | 511 kts | 54° |
| 2026-05-05 01:12 | 43.47880 | -69.15122 | 38789 ft | 514 kts | 54° |
| 2026-05-05 01:13 | 43.51670 | -69.06735 | 38868 ft | 516 kts | 54° |
| 2026-05-05 01:13 | 43.55439 | -68.98363 | 38866 ft | 510 kts | 55° |
| 2026-05-05 01:14 | 43.59166 | -68.90066 | 38886 ft | 508 kts | 55° |
| 2026-05-05 01:14 | 43.62876 | -68.81787 | 38887 ft | 507 kts | 55° |
| 2026-05-05 01:15 | 43.66580 | -68.73500 | 38883 ft | 507 kts | 55° |
| 2026-05-05 01:15 | 43.70278 | -68.65200 | 38878 ft | 508 kts | 55° |
| 2026-05-05 01:16 | 43.73985 | -68.56855 | 38899 ft | 510 kts | 55° |
| 2026-05-05 01:16 | 43.77706 | -68.48455 | 38886 ft | 512 kts | 55° |
| 2026-05-05 01:17 | 43.81429 | -68.40025 | 38882 ft | 514 kts | 55° |
| 2026-05-05 01:17 | 43.85150 | -68.31574 | 38879 ft | 515 kts | 56° |
| 2026-05-05 01:18 | 43.88853 | -68.23140 | 38875 ft | 515 kts | 56° |
| 2026-05-05 01:18 | 43.92571 | -68.14647 | 38890 ft | 515 kts | 56° |
| 2026-05-05 01:19 | 43.96278 | -68.06158 | 38889 ft | 515 kts | 56° |
| 2026-05-05 01:19 | 43.99980 | -67.97649 | 38886 ft | 515 kts | 56° |
| 2026-05-05 01:20 | 44.03682 | -67.89119 | 38881 ft | 515 kts | 56° |
| 2026-05-05 01:20 | 44.07374 | -67.80584 | 38882 ft | 515 kts | 56° |
| 2026-05-05 01:21 | 44.11058 | -67.72045 | 38882 ft | 515 kts | 56° |
| 2026-05-05 01:21 | 44.14739 | -67.63487 | 38899 ft | 515 kts | 56° |
| 2026-05-05 01:22 | 44.18417 | -67.54910 | 38891 ft | 516 kts | 56° |
| 2026-05-05 01:22 | 44.22092 | -67.46313 | 38871 ft | 516 kts | 57° |
| 2026-05-05 01:23 | 44.25762 | -67.37703 | 38886 ft | 517 kts | 57° |
| 2026-05-05 01:23 | 44.29429 | -67.29073 | 38889 ft | 517 kts | 57° |
| 2026-05-05 01:24 | 44.33099 | -67.20410 | 38877 ft | 518 kts | 57° |
| 2026-05-05 01:24 | 44.36758 | -67.11746 | 38879 ft | 518 kts | 57° |
| 2026-05-05 01:25 | 44.40323 | -67.02981 | 38872 ft | 520 kts | 62° |
| 2026-05-05 01:25 | 44.42921 | -66.93530 | 38861 ft | 522 kts | 74° |
| 2026-05-05 01:26 | 44.44612 | -66.83697 | 38856 ft | 523 kts | 76° |
| 2026-05-05 01:26 | 44.45439 | -66.78642 | 38264 ft | 533 kts | 76° |
| 2026-05-05 01:26 | 44.46260 | -66.73641 | 37553 ft | 533 kts | 75° |
| 2026-05-05 01:27 | 44.47095 | -66.68597 | 36846 ft | 531 kts | 74° |
| 2026-05-05 01:27 | 44.47935 | -66.63578 | 36147 ft | 528 kts | 73° |
| 2026-05-05 01:27 | 44.48778 | -66.58579 | 35421 ft | 527 kts | 72° |
| 2026-05-05 01:27 | 44.49624 | -66.53581 | 34579 ft | 528 kts | 71° |
| 2026-05-05 01:28 | 44.50473 | -66.48573 | 33874 ft | 527 kts | 71° |
| 2026-05-05 01:28 | 44.51311 | -66.43601 | 33245 ft | 521 kts | 71° |
| 2026-05-05 01:28 | 44.52135 | -66.38685 | 32689 ft | 515 kts | 71° |
| 2026-05-05 01:28 | 44.52945 | -66.33829 | 32183 ft | 508 kts | 70° |
| 2026-05-05 01:29 | 44.53742 | -66.29040 | 31698 ft | 502 kts | 70° |
| 2026-05-05 01:29 | 44.54529 | -66.24304 | 31206 ft | 496 kts | 70° |
| 2026-05-05 01:29 | 44.55307 | -66.19609 | 30726 ft | 491 kts | 70° |
| 2026-05-05 01:29 | 44.56073 | -66.14973 | 30265 ft | 485 kts | 69° |
| 2026-05-05 01:30 | 44.56830 | -66.10384 | 29792 ft | 481 kts | 69° |
| 2026-05-05 01:30 | 44.57578 | -66.05841 | 29260 ft | 475 kts | 69° |
| 2026-05-05 01:30 | 44.58314 | -66.01363 | 28798 ft | 469 kts | 69° |
| 2026-05-05 01:30 | 44.59039 | -65.96930 | 28375 ft | 464 kts | 69° |
| 2026-05-05 01:31 | 44.59746 | -65.92598 | 27913 ft | 460 kts | 69° |
| 2026-05-05 01:31 | 44.60457 | -65.88242 | 27434 ft | 456 kts | 69° |
| 2026-05-05 01:31 | 44.61158 | -65.83927 | 26988 ft | 451 kts | 69° |
| 2026-05-05 01:31 | 44.61852 | -65.79649 | 26545 ft | 448 kts | 69° |
| 2026-05-05 01:32 | 44.62539 | -65.75402 | 26101 ft | 445 kts | 69° |
| 2026-05-05 01:32 | 44.63224 | -65.71165 | 25673 ft | 446 kts | 70° |
| 2026-05-05 01:32 | 44.63914 | -65.66903 | 25255 ft | 452 kts | 70° |
| 2026-05-05 01:32 | 44.64619 | -65.62553 | 24831 ft | 461 kts | 70° |
| 2026-05-05 01:33 | 44.65325 | -65.58154 | 24369 ft | 462 kts | 71° |
| 2026-05-05 01:33 | 44.66023 | -65.53766 | 23918 ft | 459 kts | 71° |
| 2026-05-05 01:33 | 44.66712 | -65.49406 | 23471 ft | 456 kts | 71° |
| 2026-05-05 01:33 | 44.67396 | -65.45074 | 22957 ft | 452 kts | 71° |
| 2026-05-05 01:34 | 44.68073 | -65.40775 | 22516 ft | 449 kts | 71° |
| 2026-05-05 01:34 | 44.68745 | -65.36508 | 22037 ft | 445 kts | 71° |
| 2026-05-05 01:34 | 44.69493 | -65.32312 | 21556 ft | 443 kts | 68° |
| 2026-05-05 01:34 | 44.70354 | -65.28149 | 21082 ft | 444 kts | 66° |
| 2026-05-05 01:35 | 44.71261 | -65.23997 | 20681 ft | 444 kts | 66° |
| 2026-05-05 01:35 | 44.72173 | -65.19860 | 20379 ft | 442 kts | 66° |
| 2026-05-05 01:35 | 44.73071 | -65.15741 | 20091 ft | 439 kts | 67° |
| 2026-05-05 01:35 | 44.73954 | -65.11637 | 19777 ft | 438 kts | 67° |
| 2026-05-05 01:36 | 44.74824 | -65.07543 | 19477 ft | 436 kts | 68° |
| 2026-05-05 01:36 | 44.75685 | -65.03457 | 19171 ft | 435 kts | 68° |
| 2026-05-05 01:36 | 44.76539 | -64.99380 | 18866 ft | 434 kts | 68° |
| 2026-05-05 01:36 | 44.77386 | -64.95323 | 18582 ft | 433 kts | 68° |
| 2026-05-05 01:37 | 44.78236 | -64.91246 | 18158 ft | 435 kts | 69° |
| 2026-05-05 01:37 | 44.79086 | -64.87156 | 17823 ft | 434 kts | 69° |
| 2026-05-05 01:37 | 44.79929 | -64.83086 | 17578 ft | 431 kts | 69° |
| 2026-05-05 01:37 | 44.80763 | -64.79049 | 17338 ft | 428 kts | 69° |
| 2026-05-05 01:38 | 44.81581 | -64.75083 | 17045 ft | 426 kts | 69° |
| 2026-05-05 01:38 | 44.82403 | -64.71091 | 16742 ft | 424 kts | 69° |
| 2026-05-05 01:38 | 44.83221 | -64.67115 | 16336 ft | 421 kts | 69° |
| 2026-05-05 01:38 | 44.84032 | -64.63167 | 15892 ft | 418 kts | 69° |
| 2026-05-05 01:39 | 44.84835 | -64.59249 | 15463 ft | 415 kts | 69° |
| 2026-05-05 01:39 | 44.85631 | -64.55359 | 15056 ft | 412 kts | 69° |
| 2026-05-05 01:39 | 44.86420 | -64.51500 | 14635 ft | 409 kts | 70° |
| 2026-05-05 01:39 | 44.87203 | -64.47655 | 14239 ft | 406 kts | 70° |
| 2026-05-05 01:40 | 44.87978 | -64.43842 | 13800 ft | 404 kts | 70° |
| 2026-05-05 01:40 | 44.88751 | -64.40042 | 13342 ft | 402 kts | 70° |
| 2026-05-05 01:40 | 44.89517 | -64.36263 | 12894 ft | 399 kts | 70° |
| 2026-05-05 01:40 | 44.90275 | -64.32510 | 12464 ft | 396 kts | 70° |
| 2026-05-05 01:41 | 44.91027 | -64.28786 | 12048 ft | 393 kts | 71° |
| 2026-05-05 01:41 | 44.91773 | -64.25085 | 11624 ft | 391 kts | 71° |
| 2026-05-05 01:41 | 44.92512 | -64.21411 | 11206 ft | 388 kts | 71° |
| 2026-05-05 01:41 | 44.93244 | -64.17763 | 10814 ft | 385 kts | 71° |
| 2026-05-05 01:42 | 44.93969 | -64.14148 | 10563 ft | 379 kts | 71° |
| 2026-05-05 01:42 | 44.94673 | -64.10617 | 10397 ft | 369 kts | 71° |
| 2026-05-05 01:42 | 44.95358 | -64.07179 | 10245 ft | 359 kts | 71° |
| 2026-05-05 01:42 | 44.96026 | -64.03825 | 10091 ft | 351 kts | 71° |
| 2026-05-05 01:43 | 44.96677 | -64.00551 | 9946 ft | 343 kts | 71° |
| 2026-05-05 01:43 | 44.97320 | -63.97319 | 9641 ft | 341 kts | 71° |
| 2026-05-05 01:43 | 44.97958 | -63.94106 | 9317 ft | 338 kts | 71° |
| 2026-05-05 01:43 | 44.98591 | -63.90918 | 8970 ft | 337 kts | 71° |
| 2026-05-05 01:44 | 44.99223 | -63.87726 | 8624 ft | 335 kts | 71° |
| 2026-05-05 01:44 | 44.99847 | -63.84569 | 8295 ft | 333 kts | 71° |
| 2026-05-05 01:44 | 45.00466 | -63.81427 | 7976 ft | 331 kts | 72° |
| 2026-05-05 01:44 | 45.01080 | -63.78304 | 7611 ft | 331 kts | 71° |
| 2026-05-05 01:45 | 45.01692 | -63.75187 | 7102 ft | 326 kts | 72° |
| 2026-05-05 01:45 | 45.02292 | -63.72127 | 6589 ft | 320 kts | 72° |
| 2026-05-05 01:45 | 45.02880 | -63.69128 | 6229 ft | 320 kts | 72° |
| 2026-05-05 01:45 | 45.03482 | -63.66052 | 5850 ft | 321 kts | 72° |
| 2026-05-05 01:46 | 45.04056 | -63.63105 | 5400 ft | 308 kts | 72° |
| 2026-05-05 01:46 | 45.04614 | -63.60235 | 4878 ft | 298 kts | 72° |
| 2026-05-05 01:46 | 45.05160 | -63.57431 | 4360 ft | 297 kts | 71° |
| 2026-05-05 01:46 | 45.05714 | -63.54594 | 4037 ft | 298 kts | 71° |
| 2026-05-05 01:47 | 45.06255 | -63.51803 | 3995 ft | 293 kts | 72° |
| 2026-05-05 01:47 | 45.06797 | -63.49011 | 4006 ft | 295 kts | 72° |
| 2026-05-05 01:47 | 45.07342 | -63.46221 | 3988 ft | 291 kts | 69° |
| 2026-05-05 01:47 | 45.08289 | -63.43812 | 3982 ft | 275 kts | 37° |
| 2026-05-05 01:48 | 45.09822 | -63.42313 | 3996 ft | 266 kts | 21° |
| 2026-05-05 01:48 | 45.11448 | -63.40989 | 4014 ft | 273 kts | 21° |
| 2026-05-05 01:48 | 45.13110 | -63.39639 | 3980 ft | 275 kts | 21° |
| 2026-05-05 01:48 | 45.14605 | -63.37967 | 3976 ft | 282 kts | 46° |
| 2026-05-05 01:49 | 45.15475 | -63.35439 | 3997 ft | 293 kts | 76° |
| 2026-05-05 01:49 | 45.15485 | -63.32559 | 3989 ft | 295 kts | 105° |
| 2026-05-05 01:49 | 45.15002 | -63.30748 | 3926 ft | 289 kts | 124° |
| 2026-05-05 01:49 | 45.13193 | -63.28249 | 3601 ft | 266 kts | 163° |
| 2026-05-05 01:50 | 45.12035 | -63.27770 | 3422 ft | 249 kts | 185° |
| 2026-05-05 01:50 | 45.10436 | -63.28161 | 3166 ft | 224 kts | 217° |
| 2026-05-05 01:50 | 45.09311 | -63.29472 | 3095 ft | 206 kts | 232° |
| 2026-05-05 01:50 | 45.08246 | -63.30883 | 3099 ft | 211 kts | 230° |
| 2026-05-05 01:51 | 45.07127 | -63.32218 | 3008 ft | 209 kts | 225° |
| 2026-05-05 01:51 | 45.05988 | -63.33424 | 2999 ft | 205 kts | 224° |
| 2026-05-05 01:51 | 45.04809 | -63.34618 | 3002 ft | 207 kts | 224° |
| 2026-05-05 01:51 | 45.03627 | -63.35798 | 2997 ft | 208 kts | 223° |
| 2026-05-05 01:52 | 45.02448 | -63.36972 | 2987 ft | 204 kts | 224° |
| 2026-05-05 01:52 | 45.01313 | -63.38097 | 2984 ft | 194 kts | 224° |
| 2026-05-05 01:52 | 45.00237 | -63.39166 | 2986 ft | 194 kts | 224° |
| 2026-05-05 01:52 | 44.99129 | -63.40272 | 2971 ft | 196 kts | 224° |
| 2026-05-05 01:53 | 44.98009 | -63.41388 | 2715 ft | 195 kts | 223° |
| 2026-05-05 01:53 | 44.96923 | -63.42454 | 2430 ft | 180 kts | 224° |
| 2026-05-05 01:53 | 44.95946 | -63.43422 | 2182 ft | 162 kts | 225° |
| 2026-05-05 01:53 | 44.95076 | -63.44287 | 1981 ft | 143 kts | 224° |
| 2026-05-05 01:54 | 44.94326 | -63.45033 | 1816 ft | 131 kts | 224° |
| 2026-05-05 01:54 | 44.93577 | -63.45784 | 1642 ft | 133 kts | 223° |
| 2026-05-05 01:54 | 44.92831 | -63.46523 | 1440 ft | 128 kts | 223° |
| 2026-05-05 01:54 | 44.92096 | -63.47254 | 1276 ft | 131 kts | 220° |
| 2026-05-05 01:55 | 44.91328 | -63.48015 | 1096 ft | 139 kts | 218° |
| 2026-05-05 01:55 | 44.90522 | -63.48814 | 892 ft | 142 kts | 215° |
| 2026-05-05 01:55 | 44.89720 | -63.49608 | 712 ft | 141 kts | 213° |
| 2026-05-05 01:55 | 44.88931 | -63.50388 | 533 ft | 136 kts | 212° |
| 2026-05-05 01:56 | 44.88187 | -63.51118 | 462 ft | 115 kts | 216° |
| 2026-05-05 01:56 | 44.87660 | -63.51641 | 464 ft | 67 kts | 214° |
| 2026-05-05 01:56 | 44.87453 | -63.51892 | 463 ft | 24 kts | 252° |
| 2026-05-05 01:56 | 44.87477 | -63.52099 | 465 ft | 16 kts | 314° |
| 2026-05-05 01:57 | 44.87571 | -63.52062 | 465 ft | 17 kts | 35° |
| 2026-05-05 01:57 | 44.87681 | -63.51953 | 464 ft | 21 kts | 35° |
| 2026-05-05 01:57 | 44.87813 | -63.51824 | 464 ft | 25 kts | 34° |
| 2026-05-05 01:57 | 44.87966 | -63.51670 | 464 ft | 29 kts | 35° |
| 2026-05-05 01:58 | 44.88138 | -63.51501 | 463 ft | 31 kts | 35° |
| 2026-05-05 01:58 | 44.88296 | -63.51346 | 463 ft | 23 kts | 34° |
| 2026-05-05 01:58 | 44.88407 | -63.51228 | 462 ft | 17 kts | 36° |
| 2026-05-05 01:58 | 44.88525 | -63.51222 | 462 ft | 13 kts | 347° |
| 2026-05-05 01:59 | 44.88548 | -63.51297 | 462 ft | 9 kts | 274° |
| 2026-05-05 01:59 | 44.88549 | -63.51335 | 462 ft | 0 kts | 272° |